createdAt,value
2018-08-07T00:01:37.637Z,48.30
2018-08-07T00:04:09.417Z,48.10
2018-08-07T00:06:41.958Z,47.70
2018-08-07T00:09:13.940Z,47.30
2018-08-07T00:11:45.637Z,47.10
2018-08-07T00:14:17.198Z,47.20
2018-08-07T00:16:49.418Z,48.20
2018-08-07T00:19:21.918Z,48.70
2018-08-07T00:21:54.019Z,49.20
2018-08-07T00:24:25.900Z,49.60
2018-08-07T00:26:57.239Z,49.60
2018-08-07T00:29:29.818Z,48.80
2018-08-07T00:32:01.378Z,48.70
2018-08-07T00:34:32.938Z,49.10
2018-08-07T00:37:04.598Z,49.30
2018-08-07T00:39:36.038Z,49.60
2018-08-07T00:42:07.658Z,49.70
2018-08-07T00:44:38.818Z,50.30
2018-08-07T00:47:11.037Z,50.70
2018-08-07T00:49:42.178Z,50.60
2018-08-07T00:52:13.977Z,50.60
2018-08-07T00:54:45.277Z,50.90
2018-08-07T00:57:17.517Z,51.10
2018-08-07T00:59:49.258Z,51.10
2018-08-07T01:02:21.598Z,51.10
2018-08-07T01:04:53.457Z,51.20
2018-08-07T01:07:25.279Z,51.20
2018-08-07T01:09:57.300Z,51.10
2018-08-07T01:12:29.237Z,51.70
2018-08-07T01:15:01.198Z,51.10
2018-08-07T01:17:33.137Z,51.10
2018-08-07T01:20:05.799Z,51.10
2018-08-07T01:22:39.097Z,51.10
2018-08-07T01:25:12.377Z,51.10
2018-08-07T01:27:44.257Z,51.00
2018-08-07T01:30:18.697Z,50.80
2018-08-07T01:32:50.780Z,51.00
2018-08-07T01:35:22.598Z,50.80
2018-08-07T01:37:54.377Z,50.90
2018-08-07T01:40:26.838Z,51.00
2018-08-07T01:42:58.798Z,51.20
2018-08-07T01:45:30.617Z,51.10
2018-08-07T01:48:01.818Z,51.10
2018-08-07T01:50:33.118Z,50.90
2018-08-07T01:53:05.437Z,51.30
2018-08-07T01:55:37.738Z,51.10
2018-08-07T01:58:10.019Z,50.90
2018-08-07T02:00:42.658Z,50.90
2018-08-07T02:03:13.898Z,51.10
2018-08-07T02:05:46.282Z,51.60
2018-08-07T02:08:18.377Z,51.20
2018-08-07T02:10:50.119Z,51.20
2018-08-07T02:13:22.178Z,51.10
2018-08-07T02:15:54.377Z,51.20
2018-08-07T02:18:26.398Z,51.30
2018-08-07T02:20:58.058Z,51.30
2018-08-07T02:23:30.457Z,51.30
2018-08-07T02:26:01.798Z,51.30
2018-08-07T02:28:33.697Z,51.20
2018-08-07T02:31:04.958Z,51.20
2018-08-07T02:33:37.119Z,51.00
2018-08-07T02:36:08.563Z,50.90
2018-08-07T02:38:40.278Z,51.40
2018-08-07T02:41:12.278Z,51.60
2018-08-07T02:43:44.941Z,50.80
2018-08-07T02:46:16.457Z,50.70
2018-08-07T02:48:48.278Z,50.50
2018-08-07T02:51:19.678Z,49.90
2018-08-07T02:53:52.459Z,49.90
2018-08-07T02:56:23.717Z,49.60
2018-08-07T02:58:55.277Z,49.70
2018-08-07T03:01:27.078Z,49.60
2018-08-07T03:03:59.000Z,49.10
2018-08-07T03:06:30.818Z,49.60
2018-08-07T03:09:02.777Z,49.30
2018-08-07T03:11:34.598Z,49.20
2018-08-07T03:14:07.518Z,49.50
2018-08-07T03:16:39.419Z,49.70
2018-08-07T03:19:11.018Z,48.80
2018-08-07T03:21:42.678Z,49.50
2018-08-07T03:24:14.581Z,49.10
2018-08-07T03:26:46.459Z,49.10
2018-08-07T03:29:18.397Z,48.50
2018-08-07T03:31:50.317Z,48.90
2018-08-07T03:34:22.238Z,48.60
2018-08-07T03:36:54.468Z,48.60
2018-08-07T03:39:25.927Z,48.10
2018-08-07T03:41:58.167Z,47.90
2018-08-07T03:44:29.908Z,47.80
2018-08-07T03:47:01.155Z,47.40
2018-08-07T03:49:33.148Z,47.40
2018-08-07T03:52:05.307Z,47.10
2018-08-07T03:54:36.968Z,46.90
2018-08-07T03:57:09.848Z,46.80
2018-08-07T03:59:42.528Z,46.60
2018-08-07T04:02:14.308Z,46.30
2018-08-07T04:04:45.648Z,46.50
2018-08-07T04:07:22.072Z,46.10
2018-08-07T04:09:53.888Z,46.10
2018-08-07T04:12:25.808Z,46.70
2018-08-07T04:14:58.068Z,45.80
2018-08-07T04:17:30.268Z,46.00
2018-08-07T04:20:02.068Z,45.80
2018-08-07T04:22:34.209Z,45.90
2018-08-07T04:25:05.367Z,45.60
2018-08-07T04:27:37.068Z,45.50
2018-08-07T04:30:12.247Z,45.40
2018-08-07T04:32:45.527Z,45.00
2018-08-07T04:35:17.909Z,45.10
2018-08-07T04:37:49.908Z,44.80
2018-08-07T04:40:21.467Z,44.90
2018-08-07T04:42:53.607Z,44.80
2018-08-07T04:45:24.829Z,44.70
2018-08-07T04:47:57.087Z,44.70
2018-08-07T04:50:28.308Z,44.40
2018-08-07T04:53:00.467Z,44.20
2018-08-07T04:55:31.667Z,44.20
2018-08-07T04:58:04.007Z,44.30
2018-08-07T05:00:35.627Z,44.10
2018-08-07T05:03:07.467Z,44.30
2018-08-07T05:05:38.707Z,44.20
2018-08-07T05:08:10.608Z,43.80
2018-08-07T05:10:42.016Z,44.00
2018-08-07T05:13:13.969Z,44.10
2018-08-07T05:15:45.749Z,44.00
2018-08-07T05:18:16.647Z,43.60
2018-08-07T05:20:49.207Z,43.50
2018-08-07T05:23:20.947Z,43.50
2018-08-07T05:25:52.948Z,43.50
2018-08-07T05:28:24.867Z,43.40
2018-08-07T05:30:56.967Z,43.50
2018-08-07T05:33:28.427Z,43.40
2018-08-07T05:36:00.418Z,43.30
2018-08-07T05:38:32.247Z,43.20
2018-08-07T05:41:03.448Z,43.30
2018-08-07T05:43:35.389Z,43.30
2018-08-07T05:46:08.247Z,43.20
2018-08-07T05:48:40.148Z,43.20
2018-08-07T05:51:11.628Z,42.90
2018-08-07T05:53:43.187Z,42.90
2018-08-07T05:58:46.769Z,42.90
2018-08-07T06:01:19.128Z,43.10
2018-08-07T06:03:51.527Z,43.30
2018-08-07T06:06:24.051Z,43.20
2018-08-07T06:08:55.568Z,43.40
2018-08-07T06:11:27.448Z,43.10
2018-08-07T06:13:58.908Z,43.70
2018-08-07T06:16:30.488Z,43.00
2018-08-07T06:19:02.764Z,43.00
2018-08-07T06:21:34.828Z,43.10
2018-08-07T06:24:07.188Z,43.60
2018-08-07T06:26:39.755Z,43.50
2018-08-07T06:29:11.147Z,43.30
2018-08-07T06:31:43.362Z,43.60
2018-08-07T06:34:15.288Z,43.40
2018-08-07T06:36:47.828Z,43.40
2018-08-07T06:39:19.189Z,43.50
2018-08-07T06:41:51.468Z,43.50
2018-08-07T06:44:23.548Z,43.60
2018-08-07T06:46:55.364Z,43.50
2018-08-07T06:49:27.422Z,43.00
2018-08-07T06:51:59.422Z,43.00
2018-08-07T06:54:31.462Z,43.10
2018-08-07T06:57:03.372Z,43.00
2018-08-07T06:59:35.425Z,42.50
2018-08-07T07:02:07.679Z,42.60
2018-08-07T07:04:39.185Z,43.10
2018-08-07T07:07:10.892Z,43.10
2018-08-07T07:09:43.447Z,43.40
2018-08-07T07:12:14.055Z,42.80
2018-08-07T07:14:46.742Z,43.00
2018-08-07T07:17:18.096Z,43.00
2018-08-07T07:19:50.784Z,42.80
2018-08-07T07:22:22.707Z,43.10
2018-08-07T07:24:54.771Z,43.20
2018-08-07T07:27:26.214Z,43.20
2018-08-07T07:29:58.412Z,43.00
2018-08-07T07:32:30.930Z,42.80
2018-08-07T07:35:03.540Z,43.40
2018-08-07T07:37:34.823Z,43.20
2018-08-07T07:40:07.702Z,43.20
2018-08-07T07:42:40.640Z,43.50
2018-08-07T07:45:14.320Z,43.20
2018-08-07T07:47:46.002Z,43.10
2018-08-07T07:50:20.201Z,43.70
2018-08-07T07:52:51.521Z,43.60
2018-08-07T07:55:23.499Z,43.90
2018-08-07T07:57:56.160Z,44.00
2018-08-07T08:00:29.139Z,44.10
2018-08-07T08:03:01.629Z,44.10
2018-08-07T08:05:33.171Z,44.10
2018-08-07T08:08:05.100Z,44.00
2018-08-07T08:10:37.799Z,44.20
2018-08-07T08:13:09.501Z,44.00
2018-08-07T08:15:42.143Z,44.10
2018-08-07T08:18:13.916Z,44.00
2018-08-07T08:20:46.716Z,43.60
2018-08-07T08:23:18.558Z,43.50
2018-08-07T08:25:50.516Z,43.70
2018-08-07T08:28:22.078Z,43.50
2018-08-07T08:30:54.117Z,43.80
2018-08-07T08:33:25.657Z,43.90
2018-08-07T08:35:57.656Z,43.80
2018-08-07T08:38:29.458Z,44.30
2018-08-07T08:41:02.129Z,44.30
2018-08-07T08:43:35.516Z,51.40
2018-08-07T08:46:07.837Z,55.90
2018-08-07T08:48:40.191Z,56.30
2018-08-07T08:51:12.617Z,55.60
2018-08-07T08:56:15.516Z,55.60
2018-08-07T08:58:47.856Z,56.30
2018-08-07T09:01:19.577Z,55.80
2018-08-07T09:03:51.836Z,56.20
2018-08-07T09:06:23.536Z,56.30
2018-08-07T09:08:55.256Z,56.60
2018-08-07T09:11:26.766Z,56.50
2018-08-07T09:13:58.878Z,56.90
2018-08-07T09:16:31.083Z,56.40
2018-08-07T09:19:03.636Z,56.70
2018-08-07T09:21:35.536Z,56.00
2018-08-07T09:24:07.929Z,56.30
2018-08-07T09:26:39.255Z,57.30
2018-08-07T09:29:11.536Z,57.30
2018-08-07T09:31:43.261Z,57.30
2018-08-07T09:34:16.483Z,58.70
2018-08-07T09:36:48.822Z,57.20
2018-08-07T09:39:21.584Z,57.10
2018-08-07T09:41:53.215Z,57.80
2018-08-07T09:44:26.338Z,57.70
2018-08-07T09:46:59.228Z,58.90
2018-08-07T09:49:30.616Z,58.60
2018-08-07T09:52:03.119Z,58.80
2018-08-07T09:54:37.144Z,58.60
2018-08-07T09:57:08.923Z,58.00
2018-08-07T09:59:41.905Z,57.50
2018-08-07T10:02:22.448Z,57.40
2018-08-07T10:04:54.068Z,57.00
2018-08-07T10:07:26.901Z,57.00
2018-08-07T10:09:59.001Z,57.30
2018-08-07T10:12:30.847Z,56.70
2018-08-07T10:15:03.131Z,56.40
2018-08-07T10:17:35.194Z,56.50
2018-08-07T10:20:07.512Z,56.30
2018-08-07T10:22:42.546Z,56.70
2018-08-07T10:25:16.067Z,56.50
2018-08-07T10:27:48.870Z,56.00
2018-08-07T10:30:26.120Z,56.10
2018-08-07T10:32:59.282Z,56.40
2018-08-07T10:35:31.306Z,56.40
2018-08-07T10:38:03.709Z,56.40
2018-08-07T10:40:37.553Z,55.80
2018-08-07T10:43:10.444Z,55.70
2018-08-07T10:45:42.211Z,55.50
2018-08-07T10:48:13.445Z,56.40
2018-08-07T10:50:45.811Z,57.10
2018-08-07T10:53:17.061Z,57.00
2018-08-07T10:55:49.239Z,56.70
2018-08-07T10:58:25.359Z,57.10
2018-08-07T11:00:58.278Z,56.90
2018-08-07T11:03:30.198Z,56.20
2018-08-07T11:06:02.003Z,57.60
2018-08-07T11:08:34.048Z,59.80
2018-08-07T11:11:06.917Z,61.80
2018-08-07T11:13:38.677Z,61.20
2018-08-07T11:16:10.915Z,60.60
2018-08-07T11:18:43.808Z,60.20
2018-08-07T11:21:15.987Z,60.70
2018-08-07T11:23:48.241Z,60.60
2018-08-07T11:26:20.064Z,60.10
2018-08-07T11:28:51.582Z,60.30
2018-08-07T11:31:23.390Z,60.40
2018-08-07T11:33:55.842Z,60.80
2018-08-07T11:36:27.802Z,59.80
2018-08-07T11:38:59.838Z,59.20
2018-08-07T11:41:32.030Z,57.20
2018-08-07T11:44:03.868Z,54.90
2018-08-07T11:46:35.673Z,53.10
2018-08-07T11:49:07.469Z,52.60
2018-08-07T11:51:38.812Z,52.90
2018-08-07T11:54:11.241Z,51.70
2018-08-07T11:56:43.063Z,51.30
2018-08-07T11:59:16.967Z,49.70
2018-08-07T12:01:49.273Z,49.50
2018-08-07T12:04:20.720Z,47.40
2018-08-07T12:06:53.197Z,45.90
2018-08-07T12:09:24.748Z,43.90
2018-08-07T12:11:56.916Z,44.40
2018-08-07T12:14:28.306Z,43.30
2018-08-07T12:17:00.800Z,43.10
2018-08-07T12:19:32.903Z,42.50
2018-08-07T12:22:05.841Z,40.50
2018-08-07T12:24:40.450Z,39.40
2018-08-07T12:27:12.480Z,39.40
2018-08-07T12:29:44.419Z,39.80
2018-08-07T12:32:16.153Z,39.60
2018-08-07T12:34:47.432Z,39.10
2018-08-07T12:37:19.256Z,42.20
2018-08-07T12:39:51.249Z,44.70
2018-08-07T12:42:23.890Z,44.10
2018-08-07T12:44:55.888Z,43.30
2018-08-07T12:47:27.835Z,42.40
2018-08-07T12:49:59.748Z,42.50
2018-08-07T12:52:31.711Z,41.30
2018-08-07T12:55:04.649Z,41.10
2018-08-07T12:57:36.208Z,41.00
2018-08-07T13:00:20.511Z,43.40
2018-08-07T13:02:52.630Z,44.20
2018-08-07T13:05:24.812Z,45.10
2018-08-07T13:07:56.309Z,43.90
2018-08-07T13:10:28.928Z,43.00
2018-08-07T13:13:00.370Z,43.10
2018-08-07T13:15:33.296Z,41.80
2018-08-07T13:18:05.770Z,40.10
2018-08-07T13:20:37.411Z,37.60
2018-08-07T13:23:08.914Z,37.40
2018-08-07T13:25:41.207Z,36.40
2018-08-07T13:28:13.771Z,36.90
2018-08-07T13:30:45.290Z,36.90
2018-08-07T13:33:18.190Z,36.20
2018-08-07T13:35:50.197Z,36.80
2018-08-07T13:38:22.775Z,37.30
2018-08-07T13:40:54.751Z,36.70
2018-08-07T13:43:26.671Z,37.50
2018-08-07T13:45:58.692Z,37.70
2018-08-07T13:48:30.491Z,38.10
2018-08-07T13:51:02.316Z,38.30
2018-08-07T13:53:35.156Z,37.50
2018-08-07T13:56:06.776Z,37.50
2018-08-07T13:58:38.823Z,37.70
2018-08-07T14:01:11.014Z,37.80
2018-08-07T14:03:43.263Z,38.10
2018-08-07T14:06:15.255Z,38.80
2018-08-07T14:08:47.454Z,37.70
2018-08-07T14:11:19.654Z,38.20
2018-08-07T14:13:52.154Z,38.10
2018-08-07T14:16:24.875Z,38.50
2018-08-07T14:18:57.654Z,38.00
2018-08-07T14:21:29.174Z,38.20
2018-08-07T14:24:01.135Z,38.00
2018-08-07T14:26:33.196Z,37.60
2018-08-07T14:29:05.576Z,38.00
2018-08-07T14:31:37.553Z,40.40
2018-08-07T14:34:09.335Z,40.00
2018-08-07T14:36:41.051Z,39.40
2018-08-07T14:39:13.397Z,39.80
2018-08-07T14:41:45.933Z,38.90
2018-08-07T14:44:18.294Z,39.40
2018-08-07T14:46:49.761Z,39.40
2018-08-07T14:49:21.662Z,38.70
2018-08-07T14:51:54.061Z,38.70
2018-08-07T14:54:27.022Z,39.60
2018-08-07T14:56:59.061Z,40.70
2018-08-07T14:59:31.202Z,41.30
2018-08-07T15:02:02.505Z,39.30
2018-08-07T15:04:34.558Z,39.10
2018-08-07T15:07:07.142Z,38.80
2018-08-07T15:09:39.184Z,38.80
2018-08-07T15:12:11.029Z,38.90
2018-08-07T15:14:43.732Z,39.80
2018-08-07T15:17:15.895Z,40.70
2018-08-07T15:19:48.154Z,40.20
2018-08-07T15:22:20.644Z,40.20
2018-08-07T15:24:52.426Z,40.30
2018-08-07T15:27:25.282Z,40.50
2018-08-07T15:29:57.090Z,41.10
2018-08-07T15:32:28.912Z,40.80
2018-08-07T15:35:01.132Z,41.00
2018-08-07T15:37:33.067Z,41.40
2018-08-07T15:40:04.908Z,41.60
2018-08-07T15:42:37.307Z,41.30
2018-08-07T15:45:09.687Z,41.10
2018-08-07T15:50:14.947Z,41.30
2018-08-07T15:52:47.481Z,41.10
2018-08-07T15:55:20.588Z,41.30
2018-08-07T15:57:52.788Z,41.70
2018-08-07T16:00:33.548Z,41.40
2018-08-07T16:03:06.027Z,42.00
2018-08-07T16:05:39.307Z,42.00
2018-08-07T16:08:12.047Z,42.10
2018-08-07T16:11:25.867Z,42.10
2018-08-07T16:13:57.967Z,42.90
2018-08-07T16:16:30.607Z,43.10
2018-08-07T16:19:03.089Z,44.00
2018-08-07T16:21:34.867Z,45.40
2018-08-07T16:24:07.207Z,45.30
2018-08-07T16:26:39.167Z,45.70
2018-08-07T16:29:11.367Z,45.60
2018-08-07T16:31:42.868Z,45.00
2018-08-07T16:34:15.227Z,44.70
2018-08-07T16:36:47.246Z,44.80
2018-08-07T16:39:19.087Z,45.00
2018-08-07T16:41:51.288Z,46.20
2018-08-07T16:44:23.187Z,47.80
2018-08-07T16:46:55.366Z,46.90
2018-08-07T16:49:26.969Z,44.70
2018-08-07T16:51:58.646Z,44.00
2018-08-07T16:54:30.247Z,43.20
2018-08-07T16:57:02.822Z,42.20
2018-08-07T16:59:34.406Z,42.00
2018-08-07T17:02:06.647Z,41.90
2018-08-07T17:04:38.267Z,42.30
2018-08-07T17:07:10.529Z,42.70
2018-08-07T17:09:42.230Z,43.00
2018-08-07T17:12:14.388Z,43.50
2018-08-07T17:14:45.906Z,44.70
2018-08-07T17:17:17.867Z,45.00
2018-08-07T17:19:49.709Z,45.30
2018-08-07T17:22:22.247Z,45.30
2018-08-07T17:24:54.067Z,45.40
2018-08-07T17:27:26.487Z,45.90
2018-08-07T17:29:58.807Z,46.40
2018-08-07T17:32:30.487Z,46.40
2018-08-07T17:35:02.510Z,46.40
2018-08-07T17:37:35.027Z,46.20
2018-08-07T17:40:07.190Z,45.80
2018-08-07T17:42:40.107Z,45.60
2018-08-07T17:45:14.227Z,46.00
2018-08-07T17:47:45.947Z,47.60
2018-08-07T17:50:19.347Z,48.10
2018-08-07T17:52:50.928Z,48.40
2018-08-07T17:55:23.167Z,48.70
2018-08-07T17:57:55.427Z,48.50
2018-08-07T18:00:28.070Z,48.70
2018-08-07T18:03:00.528Z,48.80
2018-08-07T18:05:32.306Z,48.70
2018-08-07T18:08:05.567Z,49.00
2018-08-07T18:10:38.588Z,49.20
2018-08-07T18:13:10.888Z,48.90
2018-08-07T18:15:42.188Z,49.00
2018-08-07T18:18:14.408Z,49.00
2018-08-07T18:20:45.788Z,49.30
2018-08-07T18:23:17.768Z,49.80
2018-08-07T18:25:50.088Z,50.10
2018-08-07T18:28:22.075Z,50.30
2018-08-07T18:30:54.101Z,50.00
2018-08-07T18:33:26.107Z,49.80
2018-08-07T18:35:57.747Z,49.80
2018-08-07T18:38:29.547Z,49.90
2018-08-07T18:41:00.947Z,49.60
2018-08-07T18:43:33.088Z,49.40
2018-08-07T18:46:04.588Z,49.40
2018-08-07T18:48:37.488Z,49.50
2018-08-07T18:51:09.408Z,49.70
2018-08-07T18:53:41.447Z,49.30
2018-08-07T18:56:13.686Z,49.40
2018-08-07T18:58:46.047Z,48.90
2018-08-07T19:01:17.291Z,48.70
2018-08-07T19:03:49.267Z,48.40
2018-08-07T19:06:21.307Z,47.80
2018-08-07T19:08:53.047Z,47.70
2018-08-07T19:11:25.746Z,47.60
2018-08-07T19:13:57.887Z,47.20
2018-08-07T19:16:29.908Z,47.00
2018-08-07T19:19:02.687Z,47.00
2018-08-07T19:21:36.081Z,47.40
2018-08-07T19:24:08.186Z,46.80
2018-08-07T19:26:39.188Z,46.70
2018-08-07T19:29:11.246Z,46.00
2018-08-07T19:31:43.966Z,46.90
2018-08-07T19:34:15.486Z,47.10
2018-08-07T19:36:47.087Z,47.50
2018-08-07T19:39:19.088Z,47.70
2018-08-07T19:41:50.726Z,47.80
2018-08-07T19:44:22.788Z,48.00
2018-08-07T19:46:55.346Z,48.30
2018-08-07T19:49:27.288Z,48.70
2018-08-07T19:51:59.329Z,48.70
2018-08-07T19:54:31.509Z,48.80
2018-08-07T19:57:03.106Z,48.80
2018-08-07T19:59:35.830Z,48.90
2018-08-07T20:02:07.206Z,48.90
2018-08-07T20:04:38.746Z,48.90
2018-08-07T20:07:10.568Z,48.90
2018-08-07T20:09:42.288Z,48.40
2018-08-07T20:12:14.247Z,48.30
2018-08-07T20:14:46.247Z,47.90
2018-08-07T20:17:20.820Z,47.80
2018-08-07T20:19:52.848Z,47.70
2018-08-07T20:22:24.647Z,47.50
2018-08-07T20:24:56.748Z,47.20
2018-08-07T20:27:28.467Z,46.80
2018-08-07T20:30:00.168Z,46.50
2018-08-07T20:32:31.927Z,46.10
2018-08-07T20:35:03.967Z,46.00
2018-08-07T20:37:36.453Z,46.00
2018-08-07T20:40:10.987Z,46.10
2018-08-07T20:42:43.027Z,46.30
2018-08-07T20:45:15.391Z,46.00
2018-08-07T20:47:46.767Z,46.10
2018-08-07T20:50:23.187Z,46.60
2018-08-07T20:52:56.470Z,46.80
2018-08-07T20:55:28.168Z,46.70
2018-08-07T20:58:00.607Z,47.30
2018-08-07T21:00:32.388Z,47.50
2018-08-07T21:03:04.528Z,47.60
2018-08-07T21:05:36.688Z,47.70
2018-08-07T21:08:08.714Z,47.70
2018-08-07T21:10:40.567Z,47.60
2018-08-07T21:13:12.666Z,47.70
2018-08-07T21:15:45.110Z,48.40
2018-08-07T21:18:17.787Z,47.70
2018-08-07T21:20:49.806Z,48.10
2018-08-07T21:23:21.866Z,47.70
2018-08-07T21:25:53.427Z,47.80
2018-08-07T21:28:26.031Z,47.90
2018-08-07T21:30:57.426Z,48.10
2018-08-07T21:33:28.646Z,48.20
2018-08-07T21:36:00.267Z,48.50
2018-08-07T21:38:32.007Z,48.70
2018-08-07T21:41:03.906Z,48.80
2018-08-07T21:43:36.346Z,48.70
2018-08-07T21:46:07.826Z,48.70
2018-08-07T21:48:39.807Z,48.60
2018-08-07T21:51:11.727Z,48.60
2018-08-07T21:53:43.726Z,48.60
2018-08-07T21:56:15.826Z,48.60
2018-08-07T21:58:47.567Z,48.60
2018-08-07T22:01:19.807Z,48.80
2018-08-07T22:03:51.243Z,49.00
2018-08-07T22:06:23.426Z,49.00
2018-08-07T22:08:55.687Z,49.10
2018-08-07T22:11:28.247Z,49.20
2018-08-07T22:14:00.407Z,49.30
2018-08-07T22:16:32.333Z,49.30
2018-08-07T22:19:05.007Z,49.30
2018-08-07T22:21:36.407Z,49.30
2018-08-07T22:24:09.587Z,49.40
2018-08-07T22:26:41.167Z,49.30
2018-08-07T22:29:12.647Z,49.40
2018-08-07T22:31:44.608Z,49.60
2018-08-07T22:34:16.567Z,50.10
2018-08-07T22:36:48.767Z,50.40
2018-08-07T22:39:20.687Z,50.60
2018-08-07T22:41:53.107Z,50.60
2018-08-07T22:44:25.687Z,52.90
2018-08-07T22:46:56.807Z,55.00
2018-08-07T22:49:28.627Z,55.20
2018-08-07T22:52:00.807Z,55.00
2018-08-07T22:54:33.647Z,55.30
2018-08-07T22:57:04.847Z,55.10
2018-08-07T22:59:37.250Z,55.20
2018-08-07T23:02:08.787Z,55.20
2018-08-07T23:04:41.107Z,55.90
2018-08-07T23:07:12.728Z,56.20
2018-08-07T23:09:45.588Z,56.10
2018-08-07T23:12:17.627Z,56.90
2018-08-07T23:14:49.107Z,56.80
2018-08-07T23:17:21.286Z,56.90
2018-08-07T23:19:53.126Z,57.40
2018-08-07T23:22:24.967Z,57.40
2018-08-07T23:24:56.787Z,57.20
2018-08-07T23:27:29.432Z,57.80
2018-08-07T23:30:00.667Z,57.80
2018-08-07T23:32:32.166Z,56.90
2018-08-07T23:35:04.007Z,57.50
2018-08-07T23:37:35.546Z,57.50
2018-08-07T23:40:08.747Z,58.00
2018-08-07T23:42:41.587Z,58.20
2018-08-07T23:45:14.407Z,58.00
2018-08-07T23:47:46.587Z,58.40
2018-08-07T23:50:18.288Z,58.10
2018-08-07T23:52:50.827Z,58.00
2018-08-07T23:55:23.447Z,56.30
2018-08-07T23:57:55.027Z,57.00
